Time;durP1;ratioP1;P1;durP2;ratioP2;P2;SDS_P1;SDS_P2;PMS_P1;PMS_P2;Temp;Humidity;BMP_temperature;BMP_pressure;BME280_temperature;BME280_humidity;BME280_pressure;Samples;Min_cycle;Max_cycle;Signal;HPM_P1;HPM_P2
2022/05/10 00:01:28;;;;;;;9.55;5.40;;;;;;;-142.75;100.00;77385.31;5033620;28;19952;-67
2022/05/10 00:03:55;;;;;;;10.18;4.65;;;;;;;-142.75;100.00;77375.47;5033449;28;20030;-68
2022/05/10 00:06:21;;;;;;;10.63;5.55;;;;;;;-142.75;100.00;77369.56;5033659;28;20042;-68
2022/05/10 00:08:47;;;;;;;6.05;4.80;;;;;;;-142.75;100.00;77373.50;5033298;28;20510;-68
2022/05/10 00:11:12;;;;;;;;;;;;;;;-142.75;100.00;77373.50;5034034;28;20048;-68
2022/05/10 00:13:39;;;;;;;12.30;6.03;;;;;;;-142.75;100.00;77367.59;5033167;28;20003;-68
2022/05/10 00:16:06;;;;;;;12.95;5.28;;;;;;;-142.75;100.00;77359.72;5032185;28;20025;-68
2022/05/10 00:18:31;;;;;;;13.98;5.53;;;;;;;-142.75;100.00;77355.78;5033110;28;20029;-68
2022/05/10 00:20:57;;;;;;;11.23;5.40;;;;;;;-142.75;100.00;77353.81;5033451;28;20040;-68
2022/05/10 00:23:23;;;;;;;12.40;5.50;;;;;;;-142.75;100.00;77353.81;5033179;28;20079;-68
2022/05/10 00:25:48;;;;;;;8.63;5.28;;;;;;;-142.75;100.00;77349.88;5033195;28;20477;-68
2022/05/10 00:28:14;;;;;;;;;;;;;;;-142.75;100.00;77340.03;5033136;28;20387;-67
2022/05/10 00:30:40;;;;;;;12.52;5.07;;;;;;;-142.75;100.00;77338.06;5033150;28;19920;-68
2022/05/10 00:33:05;;;;;;;;;;;;;;;-142.75;100.00;77336.09;5033433;28;20513;-68
2022/05/10 00:35:33;;;;;;;12.57;5.28;;;;;;;-142.75;100.00;77334.13;5030166;28;19940;-68
2022/05/10 00:38:00;;;;;;;16.77;6.30;;;;;;;-142.75;100.00;77342.00;5032725;28;20021;-68
2022/05/10 00:40:30;;;;;;;9.27;5.10;;;;;;;-142.75;100.00;77332.16;5033013;28;20087;-68
2022/05/10 00:43:02;;;;;;;11.60;5.72;;;;;;;-142.75;100.00;77330.19;5032601;28;20088;-68
2022/05/10 00:45:39;;;;;;;20.05;5.60;;;;;;;-142.75;100.00;77326.25;5032891;28;20368;-68
2022/05/10 00:48:10;;;;;;;11.23;5.07;;;;;;;-142.75;100.00;77318.38;5030143;28;20072;-68
2022/05/10 00:50:43;;;;;;;16.95;5.35;;;;;;;-142.75;100.00;77310.50;5032875;28;20030;-68
2022/05/10 00:53:35;;;;;;;14.00;5.20;;;;;;;-142.75;100.00;77296.72;5032744;28;20025;-69
2022/05/10 00:56:08;;;;;;;9.15;4.60;;;;;;;-142.75;100.00;77280.97;5032543;28;20036;-68
2022/05/10 00:58:49;;;;;;;11.52;4.88;;;;;;;-142.75;100.00;77269.16;5032418;28;20021;-68
2022/05/10 01:01:24;;;;;;;13.95;5.07;;;;;;;-142.75;100.00;77263.25;5031394;28;20024;-68
2022/05/10 01:03:59;;;;;;;12.68;4.80;;;;;;;-142.75;100.00;77243.56;5032224;28;20559;-68
2022/05/10 01:06:32;;;;;;;9.63;4.63;;;;;;;-142.75;100.00;77231.75;5032562;28;20048;-68
2022/05/10 01:09:16;;;;;;;12.73;5.60;;;;;;;-142.75;100.00;77225.84;5032156;28;20021;-68
2022/05/10 01:12:01;;;;;;;15.25;5.38;;;;;;;-142.75;100.00;77223.88;5032378;28;20037;-68
2022/05/10 01:14:35;;;;;;;14.98;4.80;;;;;;;-142.75;100.00;77212.06;5032168;28;20045;-68
2022/05/10 01:17:00;;;;;;;12.68;4.97;;;;;;;-142.75;100.00;77208.13;5032344;28;20502;-69
2022/05/10 01:19:26;;;;;;;11.43;5.18;;;;;;;-142.75;100.00;77206.16;5031889;28;20029;-68
2022/05/10 01:21:57;;;;;;;9.65;4.75;;;;;;;-142.75;100.00;77200.25;5032056;28;20368;-67
2022/05/10 01:24:41;;;;;;;14.07;4.63;;;;;;;-142.75;100.00;77188.44;5030754;28;20052;-68
2022/05/10 01:27:13;;;;;;;13.15;5.32;;;;;;;-142.75;100.00;77176.63;5032075;28;20505;-68
2022/05/10 01:30:01;;;;;;;12.55;4.65;;;;;;;-142.75;100.00;77164.81;5031830;28;20556;-68
2022/05/10 01:35:36;;;;;;;13.48;5.22;;;;;;;-142.75;100.00;77145.13;5032081;28;20047;-68
2022/05/10 01:38:08;;;;;;;10.98;5.20;;;;;;;-142.75;100.00;77143.16;5031555;28;20028;-68
2022/05/10 01:40:47;;;;;;;13.90;5.10;;;;;;;-142.75;100.00;77141.19;5031869;28;20068;-68
2022/05/10 01:43:40;;;;;;;11.50;5.00;;;;;;;-142.75;100.00;77125.44;5031679;28;20030;-68
2022/05/10 01:46:20;;;;;;;11.95;5.07;;;;;;;-142.75;100.00;77129.38;5031816;28;20033;-68
2022/05/10 01:48:50;;;;;;;11.30;4.60;;;;;;;-142.75;100.00;77119.53;5031462;28;20071;-68
2022/05/10 01:51:26;;;;;;;10.98;4.75;;;;;;;-142.75;100.00;77107.72;5030458;28;20030;-68
2022/05/10 01:53:52;;;;;;;12.20;4.90;;;;;;;-142.75;100.00;77101.81;5031429;28;20021;-67
2022/05/10 01:56:20;;;;;;;;;;;;;;;-142.75;100.00;77097.88;5030696;28;20470;-68
2022/05/10 01:58:46;;;;;;;12.35;4.45;;;;;;;-142.75;100.00;77090.00;5031021;28;20012;-68
2022/05/10 02:01:17;;;;;;;9.38;4.82;;;;;;;-142.75;100.00;77086.06;5031416;28;20426;-68
2022/05/10 02:04:04;;;;;;;16.42;5.32;;;;;;;-142.75;100.00;77082.13;5031379;28;20055;-67
2022/05/10 02:06:34;;;;;;;12.07;4.70;;;;;;;-142.75;100.00;77074.25;5031394;28;20021;-67
2022/05/10 02:09:04;;;;;;;11.13;5.00;;;;;;;-142.75;100.00;77066.38;5030995;28;20021;-68
2022/05/10 02:11:31;;;;;;;14.50;5.28;;;;;;;-142.75;100.00;77054.56;5029901;28;20036;-68
2022/05/10 02:14:08;;;;;;;10.98;4.75;;;;;;;-142.75;100.00;77046.69;5031118;28;20025;-68
2022/05/10 02:16:41;;;;;;;13.32;5.57;;;;;;;-142.75;100.00;77042.75;5029833;28;20035;-68
2022/05/10 02:19:10;;;;;;;11.77;4.93;;;;;;;-142.75;100.00;77036.84;5030942;28;20033;-68
2022/05/10 02:21:46;;;;;;;9.20;4.47;;;;;;;-142.75;100.00;77034.88;5031056;28;20108;-67
2022/05/10 02:24:12;;;;;;;10.35;4.95;;;;;;;-142.75;100.00;77028.97;5029466;28;20033;-68
2022/05/10 02:26:43;;;;;;;;;;;;;;;-142.75;100.00;77021.09;5031448;28;20112;-68
2022/05/10 02:29:16;;;;;;;14.15;5.07;;;;;;;-142.75;100.00;77021.09;5030580;28;19958;-68
2022/05/10 02:34:35;;;;;;;16.20;5.72;;;;;;;-142.75;100.00;77015.19;5031010;28;20446;-68
2022/05/10 02:37:00;;;;;;;13.45;5.45;;;;;;;-142.75;100.00;77007.31;5030999;28;20051;-68
2022/05/10 02:39:25;;;;;;;;;;;;;;;-142.75;100.00;77015.19;5030968;28;20120;-67
2022/05/10 02:41:52;;;;;;;14.00;5.25;;;;;;;-142.75;100.00;77023.06;5030753;28;19932;-67
2022/05/10 02:44:18;;;;;;;15.80;5.22;;;;;;;-142.75;100.00;77034.88;5029023;28;20424;-67
2022/05/10 02:46:43;;;;;;;;;;;;;;;-142.75;100.00;77046.69;5030444;28;20021;-67
2022/05/10 02:49:08;;;;;;;12.00;5.60;;;;;;;-142.75;100.00;77058.50;5030432;28;19913;-68
2022/05/10 02:51:34;;;;;;;;;;;;;;;-142.75;100.00;77054.56;5031263;28;20053;-68
2022/05/10 02:53:59;;;;;;;13.98;6.15;;;;;;;-142.75;100.00;77040.78;5030520;28;20385;-68
2022/05/10 02:56:26;;;;;;;;;;;;;;;-142.75;100.00;77036.84;5029862;28;20045;-68
2022/05/10 02:59:13;;;;;;;12.07;4.82;;;;;;;-142.75;100.00;77042.75;5030374;28;19913;-67
2022/05/10 03:01:53;;;;;;;12.73;5.80;;;;;;;-142.75;100.00;77050.63;5030823;28;20112;-68
2022/05/10 03:04:19;;;;;;;12.95;5.57;;;;;;;-142.75;100.00;77048.66;5026187;28;20040;-68
2022/05/10 03:06:46;;;;;;;;;;;;;;;-142.75;100.00;77040.78;5030889;28;20029;-68
2022/05/10 03:09:12;;;;;;;15.98;6.22;;;;;;;-142.75;100.00;77034.88;5028975;28;19920;-68
2022/05/10 03:11:38;;;;;;;15.48;6.50;;;;;;;-142.75;100.00;77040.78;5033197;28;20033;-68
2022/05/10 03:14:04;;;;;;;;;;;;;;;-142.75;100.00;77036.84;5034846;28;20479;-67
2022/05/10 03:16:29;;;;;;;14.65;5.97;;;;;;;-142.75;100.00;77027.00;5033257;28;19919;-68
2022/05/10 03:18:55;;;;;;;;;;;;;;;-142.75;100.00;77032.91;5034733;28;20037;-68
2022/05/10 03:21:21;;;;;;;16.65;6.35;;;;;;;-142.75;100.00;77038.81;5034347;28;19913;-68
2022/05/10 03:23:47;;;;;;;15.13;6.50;;;;;;;-142.75;100.00;77036.84;5070001;22;20045;-69
2022/05/10 03:26:15;;;;;;;;;;;;;;;-142.75;100.00;77032.91;5053181;28;20025;-70
2022/05/10 03:28:40;;;;;;;;;;;;;;;-142.75;100.00;77034.88;5054365;28;20372;-70
2022/05/10 03:31:07;;;;;;;15.85;6.88;;;;;;;-142.75;100.00;77034.88;5052891;28;19955;-69
2022/05/10 03:33:33;;;;;;;16.83;7.55;;;;;;;-142.75;100.00;77038.81;5054105;28;20473;-68
2022/05/10 03:35:58;;;;;;;;;;;;;;;-142.75;100.00;77048.66;5053270;28;20025;-69
2022/05/10 03:38:23;;;;;;;14.25;6.47;;;;;;;-142.75;100.00;77050.63;5053787;28;19939;-69
2022/05/10 03:40:49;;;;;;;;;;;;;;;-142.75;100.00;77040.78;5053192;28;20017;-70
2022/05/10 03:43:14;;;;;;;14.65;7.38;;;;;;;-142.75;100.00;77036.84;5053746;28;19913;-69
2022/05/10 03:45:39;;;;;;;;;;;;;;;-142.75;100.00;77042.75;5054408;28;20024;-69
2022/05/10 03:48:05;;;;;;;12.68;6.07;;;;;;;-142.75;100.00;77032.91;5052253;28;19999;-67
2022/05/10 03:50:31;;;;;;;16.95;7.10;;;;;;;-142.75;100.00;77032.91;5052643;28;20064;-69
2022/05/10 03:52:57;;;;;;;16.25;7.38;;;;;;;-142.75;100.00;77023.06;5052410;28;20105;-69
2022/05/10 03:55:24;;;;;;;;;;;;;;;-142.75;100.00;77015.19;5052943;28;20120;-69
2022/05/10 03:57:50;;;;;;;16.77;6.53;;;;;;;-142.75;100.00;77021.09;5053481;28;19912;-68
2022/05/10 04:00:25;;;;;;;14.98;6.80;;;;;;;-142.75;100.00;77011.25;5053532;28;20032;-69
2022/05/10 04:02:51;;;;;;;18.70;7.75;;;;;;;-142.75;100.00;77017.16;5053507;28;20448;-69
2022/05/10 04:05:16;;;;;;;;;;;;;;;-142.75;100.00;77011.25;5054145;28;20074;-69
2022/05/10 04:07:42;;;;;;;17.63;6.97;;;;;;;-142.75;100.00;77021.09;5053232;28;20293;-67
2022/05/10 04:10:08;;;;;;;;;;;;;;;-142.75;100.00;77021.09;5053788;28;20496;-69
2022/05/10 04:12:36;;;;;;;13.70;6.95;;;;;;;-142.75;100.00;77011.25;5051922;28;20008;-69
2022/05/10 04:15:02;;;;;;;20.10;8.68;;;;;;;-142.75;100.00;77007.31;5053424;28;20029;-70
2022/05/10 04:17:27;;;;;;;;;;;;;;;-142.75;100.00;77013.22;5053717;28;20025;-69
2022/05/10 04:19:52;;;;;;;15.65;6.88;;;;;;;-142.75;100.00;76999.44;5053024;28;20391;-69
2022/05/10 04:22:18;;;;;;;;;;;;;;;-142.75;100.00;77001.41;5051937;28;20052;-69
2022/05/10 04:24:43;;;;;;;18.50;8.20;;;;;;;-142.75;100.00;76993.53;5053289;28;20352;-69
2022/05/10 04:27:08;;;;;;;;;;;;;;;-142.75;100.00;76995.50;5053650;28;20437;-69
2022/05/10 04:29:34;;;;;;;18.40;7.57;;;;;;;-142.75;100.00;76999.44;5052821;28;19916;-69
2022/05/10 04:31:59;;;;;;;;;;;;;;;-142.75;100.00;76993.53;5053594;28;20530;-70
2022/05/10 04:34:24;;;;;;;18.48;7.35;;;;;;;-142.75;100.00;76987.63;5051591;28;19913;-70
2022/05/10 04:36:49;;;;;;;;;;;;;;;-142.75;100.00;76987.63;5053425;28;20029;-69
2022/05/10 04:39:15;;;;;;;16.38;7.22;;;;;;;-142.75;100.00;76985.66;5052565;28;19966;-70
2022/05/10 04:41:43;;;;;;;;;;;;;;;-142.75;100.00;76979.75;5053546;28;20139;-69
2022/05/10 04:44:10;;;;;;;16.27;7.65;;;;;;;-142.75;100.00;76969.91;5051303;28;19917;-70
2022/05/10 04:46:37;;;;;;;16.95;7.63;;;;;;;-142.75;100.00;76958.09;5052692;28;20040;-70
2022/05/10 04:49:05;;;;;;;19.77;7.72;;;;;;;-142.75;100.00;76960.06;5052408;28;20035;-69
2022/05/10 04:51:30;;;;;;;18.88;7.32;;;;;;;-142.75;100.00;76954.16;5052622;28;20029;-68
2022/05/10 04:53:55;;;;;;;;;;;;;;;-142.75;100.00;76942.34;5051624;28;20528;-68
2022/05/10 04:56:21;;;;;;;15.07;7.70;;;;;;;-142.75;100.00;76934.47;5052570;28;19912;-69
2022/05/10 04:58:46;;;;;;;;;;;;;;;-142.75;100.00;76932.50;5052807;28;20524;-69
2022/05/10 05:01:14;;;;;;;16.55;7.03;;;;;;;-142.75;100.00;76924.63;5051241;28;19958;-69
2022/05/10 05:03:47;;;;;;;18.77;8.38;;;;;;;-142.75;100.00;76924.63;5052232;28;20029;-69
2022/05/10 05:06:13;;;;;;;16.65;7.72;;;;;;;-142.75;100.00;76918.72;5052497;28;20088;-70
2022/05/10 05:08:38;;;;;;;;;;;;;;;-142.75;100.00;76908.88;5052410;28;20060;-70
2022/05/10 05:11:04;;;;;;;13.68;7.13;;;;;;;-142.75;100.00;76904.94;5052373;28;19913;-70
2022/05/10 05:13:30;;;;;;;;;;;;;;;-142.75;100.00;76906.91;5052718;28;20029;-69
2022/05/10 05:15:55;;;;;;;20.10;8.05;;;;;;;-142.75;100.00;76895.09;5052198;28;19913;-69
2022/05/10 05:18:21;;;;;;;;;;;;;;;-142.75;100.00;76877.38;5052402;28;20489;-69
2022/05/10 05:20:47;;;;;;;22.55;7.25;;;;;;;-142.75;100.00;76873.44;5052076;28;19975;-67
2022/05/10 05:23:12;;;;;;;;;;;;;;;-142.75;100.00;76855.72;5052243;28;20379;-69
2022/05/10 05:25:39;;;;;;;20.60;7.38;;;;;;;-142.75;100.00;76847.84;5052014;28;19919;-69
2022/05/10 05:28:06;;;;;;;17.67;8.40;;;;;;;-142.75;100.00;76847.84;5050423;28;20470;-70
2022/05/10 05:30:32;;;;;;;24.23;8.30;;;;;;;-142.75;100.00;76832.09;5051849;28;20029;-70
2022/05/10 05:32:57;;;;;;;22.25;8.23;;;;;;;-142.75;100.00;76814.38;5051393;28;20036;-70
2022/05/10 05:35:23;;;;;;;;;;;;;;;-142.75;100.00;76798.66;5052037;28;20036;-69
2022/05/10 05:37:48;;;;;;;16.27;7.07;;;;;;;-142.75;100.00;76790.78;5050255;28;19912;-70
2022/05/10 05:40:15;;;;;;;;;;;;;;;-142.75;100.00;76782.91;5052031;28;20025;-69
2022/05/10 05:42:41;;;;;;;18.20;7.55;;;;;;;-142.75;100.00;76769.13;5051636;28;20374;-68
2022/05/10 05:45:08;;;;;;;;;;;;;;;-142.75;100.00;76763.22;5051940;28;20031;-68
2022/05/10 05:47:33;;;;;;;18.88;7.40;;;;;;;-142.75;100.00;76749.44;5051713;28;19917;-68
2022/05/10 05:49:58;;;;;;;;;;;;;;;-142.75;100.00;76747.47;5051654;28;20067;-68
2022/05/10 05:52:25;;;;;;;19.75;7.93;;;;;;;-142.75;100.00;76739.59;5051435;28;19924;-68
2022/05/10 05:54:51;;;;;;;19.33;8.27;;;;;;;-142.75;100.00;76731.72;5051388;28;20032;-68
2022/05/10 05:57:17;;;;;;;19.65;8.35;;;;;;;-142.75;100.00;76719.91;5050103;28;20490;-67
2022/05/10 05:59:42;;;;;;;;;;;;;;;-142.75;100.00;76715.97;5051436;28;20035;-67
2022/05/10 06:02:18;;;;;;;17.88;7.75;;;;;;;-142.75;100.00;76717.94;5050150;28;19913;-68
2022/05/10 06:04:44;;;;;;;15.35;7.97;;;;;;;-142.75;100.00;76698.25;5051128;28;20543;-67
2022/05/10 06:07:10;;;;;;;16.75;8.35;;;;;;;-142.75;100.00;76694.31;5051247;28;20078;-65
2022/05/10 06:09:38;;;;;;;;;;;;;;;-142.75;100.00;76684.47;5050636;28;20055;-68
2022/05/10 06:12:05;;;;;;;16.40;7.68;;;;;;;-142.75;100.00;76678.56;5048923;28;19912;-68
2022/05/10 06:14:31;;;;;;;22.50;7.82;;;;;;;-142.75;100.00;76670.69;5050238;28;20394;-67
2022/05/10 06:16:57;;;;;;;;;;;;;;;-142.75;100.00;76660.84;5050800;28;20029;-67
2022/05/10 06:19:23;;;;;;;16.83;7.28;;;;;;;-142.75;100.00;76654.94;5049346;28;19935;-68
2022/05/10 06:21:48;;;;;;;16.85;7.45;;;;;;;-142.75;100.00;76641.16;5049987;28;20033;-68
2022/05/10 06:24:14;;;;;;;;;;;;;;;-142.75;100.00;76641.16;5050099;28;20497;-68
2022/05/10 06:26:39;;;;;;;21.00;7.85;;;;;;;-142.75;100.00;76645.09;5049890;28;19920;-67
2022/05/10 06:29:04;;;;;;;;;;;;;;;-142.75;100.00;76635.25;5032383;28;20083;-68
2022/05/10 06:31:30;;;;;;;16.77;7.60;;;;;;;-142.75;100.00;76633.28;5048661;28;19935;-68
2022/05/10 06:33:55;;;;;;;17.17;7.57;;;;;;;-142.75;100.00;76629.34;5050050;28;20571;-67
2022/05/10 06:36:20;;;;;;;;;;;;;;;-142.75;100.00;76621.47;5051208;28;20028;-67
2022/05/10 06:38:46;;;;;;;16.48;7.65;;;;;;;-142.75;100.00;76613.59;5050515;28;19912;-68
2022/05/10 06:41:11;;;;;;;;;;;;;;;-142.75;100.00;76603.75;5051084;28;20079;-67
2022/05/10 06:43:38;;;;;;;15.10;7.30;;;;;;;-142.75;100.00;76593.91;5049266;28;19999;-67
2022/05/10 06:46:16;;;;;;;14.55;6.82;;;;;;;-142.75;100.00;76580.13;5050674;28;20265;-68
2022/05/10 06:48:45;;;;;;;13.50;6.53;;;;;;;-142.75;100.00;76578.16;5048817;28;20107;-69
2022/05/10 06:51:11;;;;;;;15.07;6.97;;;;;;;-142.75;100.00;76570.28;5049638;28;20024;-69
2022/05/10 06:53:37;;;;;;;13.10;6.50;;;;;;;-142.75;100.00;76560.44;5050706;28;20021;-68
2022/05/10 06:56:03;;;;;;;15.77;7.22;;;;;;;-142.75;100.00;76544.69;5032693;28;20379;-68
2022/05/10 06:58:29;;;;;;;16.60;6.45;;;;;;;-142.75;100.00;76538.78;5050165;28;20029;-68
2022/05/10 07:00:54;;;;;;;11.35;6.72;;;;;;;-142.75;100.00;76530.91;5049272;28;20024;-69
2022/05/10 07:03:28;;;;;;;16.55;6.97;;;;;;;-142.75;100.00;76523.06;5050310;28;20048;-68
2022/05/10 07:05:54;;;;;;;12.35;5.88;;;;;;;-142.75;100.00;76519.13;5050670;28;20075;-69
2022/05/10 07:08:19;;;;;;;12.48;6.90;;;;;;;-142.75;100.00;76509.28;5048985;28;20024;-69
2022/05/10 07:10:44;;;;;;;;;;;;;;;-142.75;100.00;76499.44;5050930;28;20016;-69
2022/05/10 07:13:14;;;;;;;13.57;6.10;;;;;;;-142.75;100.00;76491.56;5050391;28;19912;-68
2022/05/10 07:15:40;;;;;;;18.25;7.88;;;;;;;-142.75;100.00;76489.59;5050310;28;20103;-68
2022/05/10 07:18:05;;;;;;;11.98;6.80;;;;;;;-142.75;100.00;76491.56;5050109;28;20494;-68
2022/05/10 07:20:31;;;;;;;16.90;7.47;;;;;;;-142.75;100.00;76487.63;5049084;28;20529;-68
2022/05/10 07:22:56;;;;;;;;;;;;;;;-142.75;100.00;76483.69;5050627;28;20025;-68
2022/05/10 07:25:24;;;;;;;19.77;6.78;;;;;;;-142.75;100.00;76475.81;5050324;28;19917;-68
2022/05/10 07:27:49;;;;;;;14.05;7.30;;;;;;;-142.75;100.00;76464.00;5050211;28;20108;-69
2022/05/10 07:30:15;;;;;;;11.45;6.47;;;;;;;-142.75;100.00;76464.00;5050026;28;20450;-68
2022/05/10 07:32:41;;;;;;;10.18;6.53;;;;;;;-142.75;100.00;76458.09;5050265;28;20049;-66
2022/05/10 07:35:07;;;;;;;13.90;6.50;;;;;;;-142.75;100.00;76452.19;5050250;28;20552;-68
2022/05/10 07:37:38;;;;;;;13.90;6.15;;;;;;;-142.75;100.00;76444.31;5050172;28;20383;-68
2022/05/10 07:40:04;;;;;;;10.77;6.10;;;;;;;-142.75;100.00;76440.38;5048931;28;20389;-66
2022/05/10 07:42:29;;;;;;;11.43;5.95;;;;;;;-142.75;100.00;76416.75;5049671;28;20039;-68
2022/05/10 07:44:55;;;;;;;15.43;5.75;;;;;;;-142.75;100.00;76401.00;5048971;28;20024;-69
2022/05/10 07:47:21;;;;;;;11.27;5.57;;;;;;;-142.75;100.00;76383.28;5048785;28;20039;-69
2022/05/10 07:49:46;;;;;;;7.68;5.30;;;;;;;-142.75;100.00;76351.81;5047574;28;20017;-69
2022/05/10 07:52:12;;;;;;;;;;;;;;;-142.75;100.00;76349.81;5049737;28;20021;-69
2022/05/10 07:54:38;;;;;;;15.02;5.55;;;;;;;-142.75;100.00;76343.94;5049303;28;19916;-69
2022/05/10 07:57:03;;;;;;;10.55;5.28;;;;;;;-142.75;100.00;76306.53;5049428;28;20587;-69
2022/05/10 07:59:30;;;;;;;13.68;5.70;;;;;;;-142.75;100.00;76298.66;5050785;28;20024;-68
2022/05/10 08:01:56;;;;;;;9.20;5.47;;;;;;;-142.75;100.00;76312.44;5052421;28;20017;-69
2022/05/10 08:04:21;;;;;;;10.75;5.18;;;;;;;-142.75;100.00;76310.47;5051315;28;20078;-68
2022/05/10 08:06:46;;;;;;;9.57;5.40;;;;;;;-142.75;100.00;76314.41;5052462;28;20024;-67
2022/05/10 08:09:12;;;;;;;15.90;5.82;;;;;;;-142.75;100.00;76290.78;5052216;28;20029;-69
2022/05/10 08:11:41;;;;;;;9.27;4.95;;;;;;;-142.75;100.00;76253.38;5051474;28;20040;-69
2022/05/10 08:14:06;;;;;;;9.40;4.65;;;;;;;-142.75;100.00;76223.84;5052072;28;20086;-69
2022/05/10 08:16:33;;;;;;;11.55;5.22;;;;;;;-142.75;100.00;76215.97;5051179;28;20486;-69
2022/05/10 08:18:58;;;;;;;7.72;4.25;;;;;;;-142.75;100.00;76196.31;5050763;28;20020;-69
2022/05/10 08:21:24;;;;;;;7.93;4.38;;;;;;;-142.75;100.00;76166.78;5052346;28;20037;-69
2022/05/10 08:23:52;;;;;;;10.07;4.85;;;;;;;-142.75;100.00;76135.28;5050652;28;20107;-69
2022/05/10 08:26:20;;;;;;;9.90;4.47;;;;;;;-142.75;100.00;76115.59;5051127;28;20456;-69
2022/05/10 08:28:46;;;;;;;8.65;3.92;;;;;;;-142.75;100.00;76101.81;5051654;28;20029;-69
2022/05/10 08:31:12;;;;;;;7.90;4.05;;;;;;;-142.75;100.00;76074.25;5052090;28;20430;-69
2022/05/10 08:33:41;;;;;;;8.45;3.33;;;;;;;-142.75;100.00;76046.72;5052068;28;20100;-69
2022/05/10 08:36:08;;;;;;;7.55;3.17;;;;;;;-142.75;98.78;76023.09;5052025;28;20035;-69
2022/05/10 08:38:34;;;;;;;5.95;3.28;;;;;;;-142.75;96.47;76007.34;5051893;28;20036;-69
2022/05/10 08:41:11;;;;;;;5.78;3.47;;;;;;;-142.75;93.30;76025.06;5052127;28;20020;-68
2022/05/10 08:43:41;;;;;;;7.38;3.30;;;;;;;-142.75;93.68;76040.81;5050448;28;20045;-69
2022/05/10 08:46:09;;;;;;;5.32;3.35;;;;;;;-142.75;92.27;76038.84;5050493;28;20025;-69
2022/05/10 08:48:35;;;;;;;11.00;3.33;;;;;;;-142.75;95.74;76050.66;5051532;28;20017;-69
2022/05/10 08:51:01;;;;;;;5.85;3.22;;;;;;;-142.75;95.19;76034.91;5051823;28;20044;-70
2022/05/10 08:53:28;;;;;;;9.15;3.10;;;;;;;-142.75;97.33;76029.00;5051480;28;20550;-69
2022/05/10 08:55:59;;;;;;;6.25;3.83;;;;;;;-142.75;91.22;76050.66;5050753;28;20028;-70
2022/05/10 08:58:47;;;;;;;8.32;3.83;;;;;;;-142.75;94.59;76046.72;5052369;28;20035;-68
2022/05/10 09:01:19;;;;;;;11.25;4.10;;;;;;;-142.75;92.95;76054.59;5052485;28;20029;-69
2022/05/10 09:03:51;;;;;;;6.88;3.67;;;;;;;-142.75;92.75;76040.81;5051014;28;20387;-69
2022/05/10 09:06:37;;;;;;;7.72;3.78;;;;;;;-142.75;91.93;76038.84;5052383;28;20040;-70
2022/05/10 09:09:13;;;;;;;;;;;;;;;-142.75;93.17;76027.03;5050231;28;20035;-69
2022/05/10 09:12:08;;;;;;;6.95;3.75;;;;;;;-142.75;92.26;76015.22;5052473;28;19913;-69
2022/05/10 09:14:43;;;;;;;9.45;4.25;;;;;;;-142.75;91.49;76007.34;5050396;28;20123;-68
2022/05/10 09:17:09;;;;;;;7.47;4.60;;;;;;;-142.75;92.14;76009.31;5052148;28;20032;-69
2022/05/10 09:19:41;;;;;;;172.02;10.95;;;;;;;-142.75;92.74;76019.16;5051666;28;20025;-69
2022/05/10 09:22:38;;;;;;;10.05;3.97;;;;;;;-142.75;94.98;76030.97;5050723;28;20050;-68
2022/05/10 09:25:14;;;;;;;9.95;4.05;;;;;;;-142.75;94.39;76036.88;5053150;28;20032;-68
2022/05/10 09:27:39;;;;;;;9.40;3.50;;;;;;;-142.75;97.33;76040.81;5050730;28;20116;-67
2022/05/10 09:30:05;;;;;;;10.27;4.28;;;;;;;-142.75;95.40;76036.88;5051699;28;20112;-67
2022/05/10 09:35:25;;;;;;;;;;;;;;;-142.75;93.10;76040.81;5052612;28;20039;-69
2022/05/10 09:37:55;;;;;;;9.98;3.92;;;;;;;-142.75;97.43;75991.59;5051638;28;19912;-74
2022/05/10 09:40:41;;;;;;;9.07;4.38;;;;;;;-142.75;90.39;75979.78;5034035;28;20035;-68
2022/05/10 09:43:17;;;;;;;11.07;4.47;;;;;;;-142.75;91.91;75956.19;5040717;28;20037;-68
2022/05/10 09:45:43;;;;;;;76.05;8.55;;;;;;;-142.75;88.37;75916.81;5051588;28;20032;-69
2022/05/10 09:48:09;;;;;;;12.85;4.47;;;;;;;-142.75;92.72;75893.19;5051328;28;20522;-69
2022/05/10 09:50:35;;;;;;;7.05;4.18;;;;;;;-142.75;90.08;75863.66;5051679;28;20100;-69
2022/05/10 09:53:12;;;;;;;23.35;4.60;;;;;;;-142.75;85.04;75842.03;5050148;28;20025;-70
2022/05/10 09:55:41;;;;;;;9.73;4.25;;;;;;;-142.75;87.07;75820.38;5050213;28;20025;-70
2022/05/10 09:58:16;;;;;;;15.70;4.55;;;;;;;-142.75;83.58;75790.84;5051155;28;20029;-70
2022/05/10 10:00:45;;;;;;;11.68;4.60;;;;;;;-142.75;81.53;75757.41;5051403;28;20032;-69
2022/05/10 10:03:34;;;;;;;6.43;4.13;;;;;;;-142.75;78.59;75729.84;5051284;28;20025;-69
2022/05/10 10:06:29;;;;;;;7.68;3.83;;;;;;;-142.75;79.44;75745.59;5051348;28;20451;-74
2022/05/10 10:08:56;;;;;;;8.95;3.83;;;;;;;-142.75;75.15;75716.06;5037661;28;20464;-74
2022/05/10 10:11:21;;;;;;;8.90;3.88;;;;;;;-142.75;78.46;75696.38;5051184;28;20024;-74
2022/05/10 10:13:51;;;;;;;7.65;3.45;;;;;;;-142.75;78.46;75721.97;5049876;28;20053;-74
2022/05/10 10:16:24;;;;;;;7.60;3.47;;;;;;;-142.75;74.49;75751.50;5049846;28;20098;-70
2022/05/10 10:18:53;;;;;;;10.95;3.80;;;;;;;-142.75;75.39;75733.78;5049560;28;20113;-70
2022/05/10 10:21:27;;;;;;;9.00;4.20;;;;;;;-142.75;71.55;75676.69;5050916;28;20120;-68
2022/05/10 10:24:00;;;;;;;9.98;3.60;;;;;;;-142.75;69.55;75666.88;5050692;28;20029;-68
2022/05/10 10:26:46;;;;;;;12.57;3.85;;;;;;;-142.75;70.38;75609.78;5050401;28;20029;-68
2022/05/10 10:29:44;;;;;;;;;;;;;;;-142.75;69.55;75609.78;5050348;28;20533;-69
2022/05/10 10:32:35;;;;;;;9.27;3.78;;;;;;;-142.75;68.21;75621.59;5016414;28;19921;-69
2022/05/10 10:35:14;;;;;;;7.75;4.40;;;;;;;-142.75;67.89;75586.19;5048773;28;20021;-68
2022/05/10 10:37:48;;;;;;;6.78;3.50;;;;;;;-142.75;67.82;75546.81;5049106;28;20021;-69
2022/05/10 10:40:31;;;;;;;5.95;3.88;;;;;;;-142.75;69.36;75550.75;5048708;28;20478;-69
2022/05/10 10:43:09;;;;;;;7.18;3.92;;;;;;;-142.75;68.45;75507.47;5050080;28;20043;-68
2022/05/10 10:45:43;;;;;;;10.20;4.78;;;;;;;-142.75;67.83;75523.19;5050097;28;20398;-67
2022/05/10 10:48:25;;;;;;;13.55;4.47;;;;;;;-142.75;70.24;75542.88;5049709;28;20064;-69
2022/05/10 10:50:52;;;;;;;10.55;4.50;;;;;;;-142.75;71.61;75558.63;5048708;28;20024;-68
2022/05/10 10:53:20;;;;;;;6.30;4.13;;;;;;;-142.75;74.80;75576.34;5050132;28;20033;-68
2022/05/10 10:55:47;;;;;;;13.93;5.18;;;;;;;-142.75;72.27;75574.38;5050246;28;20024;-68
2022/05/10 10:58:27;;;;;;;15.73;4.72;;;;;;;-142.75;72.05;75586.19;5048151;28;20108;-68
2022/05/10 11:01:12;;;;;;;13.32;5.70;;;;;;;-142.75;72.60;75619.63;5048658;28;20036;-68
2022/05/10 11:04:17;;;;;;;14.57;5.37;;;;;;;-142.75;74.32;75627.50;5048308;28;20025;-68
2022/05/10 11:06:51;;;;;;;8.82;5.43;;;;;;;-142.75;74.58;75613.72;5048786;28;20017;-69
2022/05/10 11:09:24;;;;;;;8.13;5.43;;;;;;;-142.75;75.06;75639.31;5049539;28;20079;-69
2022/05/10 11:12:11;;;;;;;14.32;4.90;;;;;;;-142.75;75.98;75590.13;5050382;28;20025;-68
2022/05/10 11:14:54;;;;;;;13.20;4.78;;;;;;;-142.75;72.79;75592.09;5050377;28;20020;-70
2022/05/10 11:17:32;;;;;;;12.40;4.45;;;;;;;-142.75;72.84;75590.13;5050327;28;20021;-69
2022/05/10 11:20:18;;;;;;;9.13;4.63;;;;;;;-142.75;75.82;75601.91;5048874;28;20090;-69
2022/05/10 11:22:58;;;;;;;;;;;;;;;-142.75;75.07;75625.53;5050615;28;20025;-70
2022/05/10 11:25:32;;;;;;;13.20;5.15;;;;;;;-142.75;72.94;75651.13;5050415;28;20733;-69
2022/05/10 11:28:22;;;;;;;13.73;4.70;;;;;;;-142.75;76.85;75718.03;5050022;28;20090;-70
2022/05/10 11:31:31;;;;;;;14.70;5.35;;;;;;;-142.75;77.92;75737.72;5050528;28;20067;-70
2022/05/10 11:34:26;;;;;;;14.20;4.97;;;;;;;-142.75;72.63;75676.69;5034283;28;20095;-69
2022/05/10 11:36:52;;;;;;;9.48;4.43;;;;;;;-142.75;71.47;75629.47;5052868;28;20033;-69
2022/05/10 11:39:41;;;;;;;10.02;5.55;;;;;;;-142.75;69.35;75597.97;5053877;28;20127;-70